sensor_id;sensor_type;location;lat;lon;timestamp;temperature;humidity
40828;DHT22;26549;50.918;5.338;2023-10-08T00:00:48;17.60;99.90
40828;DHT22;26549;50.918;5.338;2023-10-08T00:03:21;17.70;99.90
40828;DHT22;26549;50.918;5.338;2023-10-08T00:05:49;17.70;99.90
40828;DHT22;26549;50.918;5.338;2023-10-08T00:08:15;17.70;99.90
40828;DHT22;26549;50.918;5.338;2023-10-08T00:10:44;17.70;99.90
40828;DHT22;26549;50.918;5.338;2023-10-08T00:13:11;17.70;99.90
40828;DHT22;26549;50.918;5.338;2023-10-08T00:15:39;17.70;99.90
40828;DHT22;26549;50.918;5.338;2023-10-08T00:18:16;17.60;99.90
40828;DHT22;26549;50.918;5.338;2023-10-08T00:20:44;17.60;99.90
40828;DHT22;26549;50.918;5.338;2023-10-08T00:23:24;17.70;99.90
40828;DHT22;26549;50.918;5.338;2023-10-08T00:25:54;17.60;99.90
40828;DHT22;26549;50.918;5.338;2023-10-08T00:28:22;17.60;99.90
40828;DHT22;26549;50.918;5.338;2023-10-08T00:30:48;17.50;99.90
40828;DHT22;26549;50.918;5.338;2023-10-08T00:33:14;17.50;99.90
40828;DHT22;26549;50.918;5.338;2023-10-08T00:35:42;17.50;99.90
40828;DHT22;26549;50.918;5.338;2023-10-08T00:38:09;17.60;99.90
40828;DHT22;26549;50.918;5.338;2023-10-08T00:40:42;17.60;99.90
40828;DHT22;26549;50.918;5.338;2023-10-08T00:43:32;17.60;99.90
40828;DHT22;26549;50.918;5.338;2023-10-08T00:46:04;17.50;99.90
40828;DHT22;26549;50.918;5.338;2023-10-08T00:48:53;17.40;99.90
40828;DHT22;26549;50.918;5.338;2023-10-08T00:51:22;17.50;99.90
40828;DHT22;26549;50.918;5.338;2023-10-08T00:53:57;17.50;99.90
40828;DHT22;26549;50.918;5.338;2023-10-08T00:56:34;17.40;99.90
40828;DHT22;26549;50.918;5.338;2023-10-08T00:59:32;17.30;99.90
40828;DHT22;26549;50.918;5.338;2023-10-08T01:02:04;17.30;99.90
40828;DHT22;26549;50.918;5.338;2023-10-08T01:04:33;17.40;99.90
40828;DHT22;26549;50.918;5.338;2023-10-08T01:07:02;17.40;99.90
40828;DHT22;26549;50.918;5.338;2023-10-08T01:09:35;17.30;99.90
40828;DHT22;26549;50.918;5.338;2023-10-08T01:15:01;17.20;99.90
40828;DHT22;26549;50.918;5.338;2023-10-08T01:17:42;17.20;99.90
40828;DHT22;26549;50.918;5.338;2023-10-08T01:20:23;17.00;99.90
40828;DHT22;26549;50.918;5.338;2023-10-08T01:23:16;17.10;99.90
40828;DHT22;26549;50.918;5.338;2023-10-08T01:25:49;17.10;99.90
40828;DHT22;26549;50.918;5.338;2023-10-08T01:28:26;17.00;99.90
40828;DHT22;26549;50.918;5.338;2023-10-08T01:30:55;17.00;99.90
40828;DHT22;26549;50.918;5.338;2023-10-08T01:33:23;17.00;99.90
40828;DHT22;26549;50.918;5.338;2023-10-08T01:35:54;16.90;99.90
40828;DHT22;26549;50.918;5.338;2023-10-08T01:38:20;17.00;99.90
40828;DHT22;26549;50.918;5.338;2023-10-08T01:40:52;16.90;99.90
40828;DHT22;26549;50.918;5.338;2023-10-08T01:43:19;16.90;99.90
40828;DHT22;26549;50.918;5.338;2023-10-08T01:45:48;16.90;99.90
40828;DHT22;26549;50.918;5.338;2023-10-08T01:48:26;16.80;99.90
40828;DHT22;26549;50.918;5.338;2023-10-08T01:50:57;16.80;99.90
40828;DHT22;26549;50.918;5.338;2023-10-08T01:53:30;16.80;99.90
40828;DHT22;26549;50.918;5.338;2023-10-08T01:55:57;16.80;99.90
40828;DHT22;26549;50.918;5.338;2023-10-08T01:58:24;16.70;99.90
40828;DHT22;26549;50.918;5.338;2023-10-08T02:00:50;16.80;99.90
40828;DHT22;26549;50.918;5.338;2023-10-08T02:03:17;16.80;99.90
40828;DHT22;26549;50.918;5.338;2023-10-08T02:05:45;16.80;99.90
40828;DHT22;26549;50.918;5.338;2023-10-08T02:08:13;16.80;99.90
40828;DHT22;26549;50.918;5.338;2023-10-08T02:10:41;16.80;99.90
40828;DHT22;26549;50.918;5.338;2023-10-08T02:13:08;16.80;99.90
40828;DHT22;26549;50.918;5.338;2023-10-08T02:15:40;16.80;99.90
40828;DHT22;26549;50.918;5.338;2023-10-08T02:18:06;16.80;99.90
40828;DHT22;26549;50.918;5.338;2023-10-08T02:20:32;16.80;99.90
40828;DHT22;26549;50.918;5.338;2023-10-08T02:23:00;16.80;99.90
40828;DHT22;26549;50.918;5.338;2023-10-08T02:25:27;16.90;99.90
40828;DHT22;26549;50.918;5.338;2023-10-08T02:27:54;16.90;99.90
40828;DHT22;26549;50.918;5.338;2023-10-08T02:30:21;16.90;99.90
40828;DHT22;26549;50.918;5.338;2023-10-08T02:32:46;16.80;99.90
40828;DHT22;26549;50.918;5.338;2023-10-08T02:35:12;16.90;99.90
40828;DHT22;26549;50.918;5.338;2023-10-08T02:37:40;16.80;99.90
40828;DHT22;26549;50.918;5.338;2023-10-08T02:40:08;16.80;99.90
40828;DHT22;26549;50.918;5.338;2023-10-08T02:42:57;16.80;99.90
40828;DHT22;26549;50.918;5.338;2023-10-08T02:45:27;16.70;99.90
40828;DHT22;26549;50.918;5.338;2023-10-08T02:47:57;16.80;99.90
40828;DHT22;26549;50.918;5.338;2023-10-08T02:50:24;16.80;99.90
40828;DHT22;26549;50.918;5.338;2023-10-08T02:52:53;16.80;99.90
40828;DHT22;26549;50.918;5.338;2023-10-08T02:55:20;16.90;99.90
40828;DHT22;26549;50.918;5.338;2023-10-08T02:58:02;16.90;99.90
40828;DHT22;26549;50.918;5.338;2023-10-08T03:00:29;16.80;99.90
40828;DHT22;26549;50.918;5.338;2023-10-08T03:02:57;16.80;99.90
40828;DHT22;26549;50.918;5.338;2023-10-08T03:05:24;16.90;99.90
40828;DHT22;26549;50.918;5.338;2023-10-08T03:07:56;16.90;99.90
40828;DHT22;26549;50.918;5.338;2023-10-08T03:10:24;16.90;99.90
40828;DHT22;26549;50.918;5.338;2023-10-08T03:12:58;16.90;99.90
40828;DHT22;26549;50.918;5.338;2023-10-08T03:15:31;16.90;99.90
40828;DHT22;26549;50.918;5.338;2023-10-08T03:18:04;16.90;99.90
40828;DHT22;26549;50.918;5.338;2023-10-08T03:20:36;16.90;99.90
40828;DHT22;26549;50.918;5.338;2023-10-08T03:23:10;16.80;99.90
40828;DHT22;26549;50.918;5.338;2023-10-08T03:25:56;16.80;99.90
40828;DHT22;26549;50.918;5.338;2023-10-08T03:28:35;16.80;99.90
40828;DHT22;26549;50.918;5.338;2023-10-08T03:31:01;16.80;99.90
40828;DHT22;26549;50.918;5.338;2023-10-08T03:33:35;16.70;99.90
40828;DHT22;26549;50.918;5.338;2023-10-08T03:36:07;16.70;99.90
40828;DHT22;26549;50.918;5.338;2023-10-08T03:38:54;16.70;99.90
40828;DHT22;26549;50.918;5.338;2023-10-08T03:41:24;16.70;99.90
40828;DHT22;26549;50.918;5.338;2023-10-08T03:43:54;16.70;99.90
40828;DHT22;26549;50.918;5.338;2023-10-08T03:46:32;16.60;99.90
40828;DHT22;26549;50.918;5.338;2023-10-08T03:49:06;16.70;99.90
40828;DHT22;26549;50.918;5.338;2023-10-08T03:51:47;16.60;99.90
40828;DHT22;26549;50.918;5.338;2023-10-08T03:54:15;16.50;99.90
40828;DHT22;26549;50.918;5.338;2023-10-08T03:56:46;16.60;99.90
40828;DHT22;26549;50.918;5.338;2023-10-08T03:59:15;16.60;99.90
40828;DHT22;26549;50.918;5.338;2023-10-08T04:02:03;16.60;99.90
40828;DHT22;26549;50.918;5.338;2023-10-08T04:04:47;16.60;99.90
40828;DHT22;26549;50.918;5.338;2023-10-08T04:07:23;16.50;99.90
40828;DHT22;26549;50.918;5.338;2023-10-08T04:10:00;16.50;99.90
40828;DHT22;26549;50.918;5.338;2023-10-08T04:12:35;16.40;99.90
40828;DHT22;26549;50.918;5.338;2023-10-08T04:15:06;16.40;99.90
40828;DHT22;26549;50.918;5.338;2023-10-08T04:17:36;16.30;99.90
40828;DHT22;26549;50.918;5.338;2023-10-08T04:20:14;16.30;99.90
40828;DHT22;26549;50.918;5.338;2023-10-08T04:23:02;16.30;99.90
40828;DHT22;26549;50.918;5.338;2023-10-08T04:25:31;16.30;99.90
40828;DHT22;26549;50.918;5.338;2023-10-08T04:28:00;16.40;99.90
40828;DHT22;26549;50.918;5.338;2023-10-08T04:30:33;16.30;99.90
40828;DHT22;26549;50.918;5.338;2023-10-08T04:33:05;16.30;99.90
40828;DHT22;26549;50.918;5.338;2023-10-08T04:35:40;16.30;99.90
40828;DHT22;26549;50.918;5.338;2023-10-08T04:38:23;16.30;99.90
40828;DHT22;26549;50.918;5.338;2023-10-08T04:40:55;16.20;99.90
40828;DHT22;26549;50.918;5.338;2023-10-08T04:43:28;16.20;99.90
40828;DHT22;26549;50.918;5.338;2023-10-08T04:45:57;16.20;99.90
40828;DHT22;26549;50.918;5.338;2023-10-08T04:48:25;16.20;99.90
40828;DHT22;26549;50.918;5.338;2023-10-08T04:50:52;16.10;99.90
40828;DHT22;26549;50.918;5.338;2023-10-08T04:53:30;16.00;99.90
40828;DHT22;26549;50.918;5.338;2023-10-08T04:56:05;16.00;99.90
40828;DHT22;26549;50.918;5.338;2023-10-08T04:58:33;16.00;99.90
40828;DHT22;26549;50.918;5.338;2023-10-08T05:01:01;15.90;99.90
40828;DHT22;26549;50.918;5.338;2023-10-08T05:03:46;15.90;99.90
40828;DHT22;26549;50.918;5.338;2023-10-08T05:06:30;15.90;99.90
40828;DHT22;26549;50.918;5.338;2023-10-08T05:09:00;15.90;99.90
40828;DHT22;26549;50.918;5.338;2023-10-08T05:11:36;15.90;99.90
40828;DHT22;26549;50.918;5.338;2023-10-08T05:14:23;16.00;99.90
40828;DHT22;26549;50.918;5.338;2023-10-08T05:16:56;15.90;99.90
40828;DHT22;26549;50.918;5.338;2023-10-08T05:19:48;15.90;99.90
40828;DHT22;26549;50.918;5.338;2023-10-08T05:22:45;15.90;99.90
40828;DHT22;26549;50.918;5.338;2023-10-08T05:25:21;16.00;99.90
40828;DHT22;26549;50.918;5.338;2023-10-08T05:27:46;15.90;99.90
40828;DHT22;26549;50.918;5.338;2023-10-08T05:30:29;15.80;99.90
40828;DHT22;26549;50.918;5.338;2023-10-08T05:33:08;15.90;99.90
40828;DHT22;26549;50.918;5.338;2023-10-08T05:35:52;15.80;99.90
40828;DHT22;26549;50.918;5.338;2023-10-08T05:38:30;15.90;99.90
40828;DHT22;26549;50.918;5.338;2023-10-08T05:40:58;15.90;99.90
40828;DHT22;26549;50.918;5.338;2023-10-08T05:43:34;15.90;99.90
40828;DHT22;26549;50.918;5.338;2023-10-08T05:46:15;15.90;99.90
40828;DHT22;26549;50.918;5.338;2023-10-08T05:48:58;15.90;99.90
40828;DHT22;26549;50.918;5.338;2023-10-08T05:51:30;15.80;99.90
40828;DHT22;26549;50.918;5.338;2023-10-08T05:54:19;15.70;99.90
40828;DHT22;26549;50.918;5.338;2023-10-08T05:56:59;15.80;99.90
40828;DHT22;26549;50.918;5.338;2023-10-08T05:59:54;15.80;99.90
40828;DHT22;26549;50.918;5.338;2023-10-08T06:02:27;15.90;99.90
40828;DHT22;26549;50.918;5.338;2023-10-08T06:07:58;15.90;99.90
40828;DHT22;26549;50.918;5.338;2023-10-08T06:10:37;15.90;99.90
40828;DHT22;26549;50.918;5.338;2023-10-08T06:13:12;15.80;99.90
40828;DHT22;26549;50.918;5.338;2023-10-08T06:15:46;15.70;99.90
40828;DHT22;26549;50.918;5.338;2023-10-08T06:18:25;15.80;99.90
40828;DHT22;26549;50.918;5.338;2023-10-08T06:21:02;15.80;99.90
40828;DHT22;26549;50.918;5.338;2023-10-08T06:23:37;15.80;99.90
40828;DHT22;26549;50.918;5.338;2023-10-08T06:26:03;15.90;99.90
40828;DHT22;26549;50.918;5.338;2023-10-08T06:28:36;15.80;99.90
40828;DHT22;26549;50.918;5.338;2023-10-08T06:31:02;15.70;99.90
40828;DHT22;26549;50.918;5.338;2023-10-08T06:33:32;15.70;99.90
40828;DHT22;26549;50.918;5.338;2023-10-08T06:36:05;15.70;99.90
40828;DHT22;26549;50.918;5.338;2023-10-08T06:38:42;15.70;99.90
40828;DHT22;26549;50.918;5.338;2023-10-08T06:41:11;15.70;99.90
40828;DHT22;26549;50.918;5.338;2023-10-08T06:43:41;15.90;99.90
40828;DHT22;26549;50.918;5.338;2023-10-08T06:46:19;15.90;99.90
40828;DHT22;26549;50.918;5.338;2023-10-08T06:48:47;15.90;99.90
40828;DHT22;26549;50.918;5.338;2023-10-08T06:51:15;15.80;99.90
40828;DHT22;26549;50.918;5.338;2023-10-08T06:53:48;15.90;99.90
40828;DHT22;26549;50.918;5.338;2023-10-08T06:56:15;16.00;99.90
40828;DHT22;26549;50.918;5.338;2023-10-08T06:58:44;16.10;99.90
40828;DHT22;26549;50.918;5.338;2023-10-08T07:01:20;16.20;99.90
40828;DHT22;26549;50.918;5.338;2023-10-08T07:04:02;16.30;99.90
40828;DHT22;26549;50.918;5.338;2023-10-08T07:06:33;16.40;99.90
40828;DHT22;26549;50.918;5.338;2023-10-08T07:09:03;16.50;99.90
40828;DHT22;26549;50.918;5.338;2023-10-08T07:11:33;16.30;99.90
40828;DHT22;26549;50.918;5.338;2023-10-08T07:14:05;16.40;99.90
40828;DHT22;26549;50.918;5.338;2023-10-08T07:16:31;16.50;99.90
40828;DHT22;26549;50.918;5.338;2023-10-08T07:18:58;16.60;99.90
40828;DHT22;26549;50.918;5.338;2023-10-08T07:21:31;16.70;99.90
40828;DHT22;26549;50.918;5.338;2023-10-08T07:24:14;16.70;99.90
40828;DHT22;26549;50.918;5.338;2023-10-08T07:26:44;16.70;99.90
40828;DHT22;26549;50.918;5.338;2023-10-08T07:29:17;16.80;99.90
40828;DHT22;26549;50.918;5.338;2023-10-08T07:31:45;16.90;99.90
40828;DHT22;26549;50.918;5.338;2023-10-08T07:34:17;16.80;99.90
40828;DHT22;26549;50.918;5.338;2023-10-08T07:36:47;16.90;99.90
40828;DHT22;26549;50.918;5.338;2023-10-08T07:39:15;16.90;99.90
40828;DHT22;26549;50.918;5.338;2023-10-08T07:42:05;16.90;99.90
40828;DHT22;26549;50.918;5.338;2023-10-08T07:44:32;16.90;99.90
40828;DHT22;26549;50.918;5.338;2023-10-08T07:47:02;17.00;99.90
40828;DHT22;26549;50.918;5.338;2023-10-08T07:49:36;17.00;99.90
40828;DHT22;26549;50.918;5.338;2023-10-08T07:52:02;17.10;99.90
40828;DHT22;26549;50.918;5.338;2023-10-08T07:54:31;17.00;99.90
40828;DHT22;26549;50.918;5.338;2023-10-08T07:57:02;17.20;99.90
40828;DHT22;26549;50.918;5.338;2023-10-08T07:59:41;17.40;99.90
40828;DHT22;26549;50.918;5.338;2023-10-08T08:02:09;17.40;99.90
40828;DHT22;26549;50.918;5.338;2023-10-08T08:04:41;17.40;99.90
40828;DHT22;26549;50.918;5.338;2023-10-08T08:07:11;17.40;99.90
40828;DHT22;26549;50.918;5.338;2023-10-08T08:09:43;17.40;99.90
40828;DHT22;26549;50.918;5.338;2023-10-08T08:12:24;17.30;99.90
40828;DHT22;26549;50.918;5.338;2023-10-08T08:14:54;17.50;99.90
40828;DHT22;26549;50.918;5.338;2023-10-08T08:17:20;17.60;99.90
40828;DHT22;26549;50.918;5.338;2023-10-08T08:19:49;17.70;99.90
40828;DHT22;26549;50.918;5.338;2023-10-08T08:22:16;17.80;99.90
40828;DHT22;26549;50.918;5.338;2023-10-08T08:24:50;17.90;99.90
40828;DHT22;26549;50.918;5.338;2023-10-08T08:27:20;17.90;99.90
40828;DHT22;26549;50.918;5.338;2023-10-08T08:29:58;18.00;99.90
40828;DHT22;26549;50.918;5.338;2023-10-08T08:32:39;18.10;99.90
40828;DHT22;26549;50.918;5.338;2023-10-08T08:35:11;18.20;99.90
40828;DHT22;26549;50.918;5.338;2023-10-08T08:37:38;18.30;99.90
40828;DHT22;26549;50.918;5.338;2023-10-08T08:40:05;18.40;99.90
40828;DHT22;26549;50.918;5.338;2023-10-08T08:42:48;18.50;99.90
40828;DHT22;26549;50.918;5.338;2023-10-08T08:45:25;18.50;99.90
40828;DHT22;26549;50.918;5.338;2023-10-08T08:47:52;18.60;99.90
40828;DHT22;26549;50.918;5.338;2023-10-08T08:50:18;18.70;99.90
40828;DHT22;26549;50.918;5.338;2023-10-08T08:52:45;18.80;99.90
40828;DHT22;26549;50.918;5.338;2023-10-08T08:55:11;18.90;99.90
40828;DHT22;26549;50.918;5.338;2023-10-08T08:57:59;19.00;99.90
40828;DHT22;26549;50.918;5.338;2023-10-08T09:00:30;19.10;99.90
40828;DHT22;26549;50.918;5.338;2023-10-08T09:02:58;19.10;99.90
40828;DHT22;26549;50.918;5.338;2023-10-08T09:05:24;19.10;99.90
40828;DHT22;26549;50.918;5.338;2023-10-08T09:08:04;19.10;99.90
40828;DHT22;26549;50.918;5.338;2023-10-08T09:10:33;19.20;99.90
40828;DHT22;26549;50.918;5.338;2023-10-08T09:13:20;19.30;99.90
40828;DHT22;26549;50.918;5.338;2023-10-08T09:15:51;19.50;99.90
40828;DHT22;26549;50.918;5.338;2023-10-08T09:18:21;19.60;99.90
40828;DHT22;26549;50.918;5.338;2023-10-08T09:20:47;19.70;99.90
40828;DHT22;26549;50.918;5.338;2023-10-08T09:23:16;19.70;99.90
40828;DHT22;26549;50.918;5.338;2023-10-08T09:25:47;19.80;99.90
40828;DHT22;26549;50.918;5.338;2023-10-08T09:28:18;19.90;99.90
40828;DHT22;26549;50.918;5.338;2023-10-08T09:30:44;20.00;99.90
40828;DHT22;26549;50.918;5.338;2023-10-08T09:33:14;20.00;99.90
40828;DHT22;26549;50.918;5.338;2023-10-08T09:35:43;20.00;99.90
40828;DHT22;26549;50.918;5.338;2023-10-08T09:38:10;20.00;99.90
40828;DHT22;26549;50.918;5.338;2023-10-08T09:40:40;20.00;99.90
40828;DHT22;26549;50.918;5.338;2023-10-08T09:43:13;20.10;99.90
40828;DHT22;26549;50.918;5.338;2023-10-08T09:45:52;20.20;99.90
40828;DHT22;26549;50.918;5.338;2023-10-08T09:48:20;20.20;99.90
40828;DHT22;26549;50.918;5.338;2023-10-08T09:50:48;20.10;99.90
40828;DHT22;26549;50.918;5.338;2023-10-08T09:53:15;20.20;99.90
40828;DHT22;26549;50.918;5.338;2023-10-08T09:55:52;20.40;99.90
40828;DHT22;26549;50.918;5.338;2023-10-08T09:58:20;20.20;99.90
40828;DHT22;26549;50.918;5.338;2023-10-08T10:00:48;20.30;99.90
40828;DHT22;26549;50.918;5.338;2023-10-08T10:03:16;20.40;99.90
40828;DHT22;26549;50.918;5.338;2023-10-08T10:05:44;20.50;99.90
40828;DHT22;26549;50.918;5.338;2023-10-08T10:08:10;20.50;99.90
40828;DHT22;26549;50.918;5.338;2023-10-08T10:10:38;20.50;99.90
40828;DHT22;26549;50.918;5.338;2023-10-08T10:13:05;20.60;99.90
40828;DHT22;26549;50.918;5.338;2023-10-08T10:15:37;20.70;99.90
40828;DHT22;26549;50.918;5.338;2023-10-08T10:18:26;20.70;99.90
40828;DHT22;26549;50.918;5.338;2023-10-08T10:20:58;20.70;99.90
40828;DHT22;26549;50.918;5.338;2023-10-08T10:23:38;20.60;99.90
40828;DHT22;26549;50.918;5.338;2023-10-08T10:26:28;20.40;99.90
40828;DHT22;26549;50.918;5.338;2023-10-08T10:31:45;20.70;99.90
40828;DHT22;26549;50.918;5.338;2023-10-08T10:34:16;20.90;99.90
40828;DHT22;26549;50.918;5.338;2023-10-08T10:36:46;21.00;99.90
40828;DHT22;26549;50.918;5.338;2023-10-08T10:39:18;21.00;99.90
40828;DHT22;26549;50.918;5.338;2023-10-08T10:41:55;21.30;99.90
40828;DHT22;26549;50.918;5.338;2023-10-08T10:44:26;21.30;99.90
40828;DHT22;26549;50.918;5.338;2023-10-08T10:46:52;21.30;99.90
40828;DHT22;26549;50.918;5.338;2023-10-08T10:49:38;21.40;99.90
40828;DHT22;26549;50.918;5.338;2023-10-08T10:52:22;21.40;99.90
40828;DHT22;26549;50.918;5.338;2023-10-08T10:55:04;21.40;99.90
40828;DHT22;26549;50.918;5.338;2023-10-08T10:58:00;21.40;99.90
40828;DHT22;26549;50.918;5.338;2023-10-08T11:00:43;21.40;99.90
40828;DHT22;26549;50.918;5.338;2023-10-08T11:03:09;21.60;99.90
40828;DHT22;26549;50.918;5.338;2023-10-08T11:05:59;21.50;99.90
40828;DHT22;26549;50.918;5.338;2023-10-08T11:08:26;21.50;99.90
40828;DHT22;26549;50.918;5.338;2023-10-08T11:11:00;21.70;99.90
40828;DHT22;26549;50.918;5.338;2023-10-08T11:13:33;21.80;99.90
40828;DHT22;26549;50.918;5.338;2023-10-08T11:16:04;21.60;99.90
40828;DHT22;26549;50.918;5.338;2023-10-08T11:18:35;21.60;99.90
40828;DHT22;26549;50.918;5.338;2023-10-08T11:21:11;21.70;99.90
40828;DHT22;26549;50.918;5.338;2023-10-08T11:23:46;21.70;99.90
40828;DHT22;26549;50.918;5.338;2023-10-08T11:26:38;21.70;99.90
40828;DHT22;26549;50.918;5.338;2023-10-08T11:29:20;21.70;99.90
40828;DHT22;26549;50.918;5.338;2023-10-08T11:31:51;21.80;99.90
40828;DHT22;26549;50.918;5.338;2023-10-08T11:34:17;21.80;99.90
40828;DHT22;26549;50.918;5.338;2023-10-08T11:36:53;21.80;99.90
40828;DHT22;26549;50.918;5.338;2023-10-08T11:39:19;21.80;99.90
40828;DHT22;26549;50.918;5.338;2023-10-08T11:41:58;22.00;99.90
40828;DHT22;26549;50.918;5.338;2023-10-08T11:44:29;22.00;99.90
40828;DHT22;26549;50.918;5.338;2023-10-08T11:46:55;22.10;99.90
40828;DHT22;26549;50.918;5.338;2023-10-08T11:49:32;22.20;99.90
40828;DHT22;26549;50.918;5.338;2023-10-08T11:52:02;22.30;99.90
40828;DHT22;26549;50.918;5.338;2023-10-08T11:54:29;22.40;99.90
40828;DHT22;26549;50.918;5.338;2023-10-08T11:57:00;22.30;99.90
40828;DHT22;26549;50.918;5.338;2023-10-08T11:59:28;22.30;99.90
40828;DHT22;26549;50.918;5.338;2023-10-08T12:01:55;22.30;99.90
40828;DHT22;26549;50.918;5.338;2023-10-08T12:04:21;22.20;99.90
40828;DHT22;26549;50.918;5.338;2023-10-08T12:06:49;22.40;99.90
40828;DHT22;26549;50.918;5.338;2023-10-08T12:09:18;22.40;99.90
40828;DHT22;26549;50.918;5.338;2023-10-08T12:11:48;22.50;99.90
40828;DHT22;26549;50.918;5.338;2023-10-08T12:14:14;22.30;99.90
40828;DHT22;26549;50.918;5.338;2023-10-08T12:16:41;22.20;99.90
40828;DHT22;26549;50.918;5.338;2023-10-08T12:19:07;22.30;99.90
40828;DHT22;26549;50.918;5.338;2023-10-08T12:21:42;22.40;99.90
40828;DHT22;26549;50.918;5.338;2023-10-08T12:24:12;22.30;99.90
40828;DHT22;26549;50.918;5.338;2023-10-08T12:26:38;22.30;99.90
40828;DHT22;26549;50.918;5.338;2023-10-08T12:29:12;22.20;99.90
40828;DHT22;26549;50.918;5.338;2023-10-08T12:31:43;22.20;99.90
40828;DHT22;26549;50.918;5.338;2023-10-08T12:34:14;22.20;99.90
40828;DHT22;26549;50.918;5.338;2023-10-08T12:36:40;22.40;99.90
40828;DHT22;26549;50.918;5.338;2023-10-08T12:39:07;22.40;99.90
40828;DHT22;26549;50.918;5.338;2023-10-08T12:41:41;22.50;99.90
40828;DHT22;26549;50.918;5.338;2023-10-08T12:44:10;22.50;99.90
40828;DHT22;26549;50.918;5.338;2023-10-08T12:46:36;22.50;99.90
40828;DHT22;26549;50.918;5.338;2023-10-08T12:49:02;22.60;99.90
40828;DHT22;26549;50.918;5.338;2023-10-08T12:51:29;22.70;99.90
40828;DHT22;26549;50.918;5.338;2023-10-08T12:54:00;22.60;99.90
40828;DHT22;26549;50.918;5.338;2023-10-08T12:56:54;22.60;99.90
40828;DHT22;26549;50.918;5.338;2023-10-08T12:59:21;22.70;99.90
40828;DHT22;26549;50.918;5.338;2023-10-08T13:01:49;22.80;99.90
40828;DHT22;26549;50.918;5.338;2023-10-08T13:04:21;22.80;99.90
40828;DHT22;26549;50.918;5.338;2023-10-08T13:07:01;22.90;99.90
40828;DHT22;26549;50.918;5.338;2023-10-08T13:09:32;22.90;99.90
40828;DHT22;26549;50.918;5.338;2023-10-08T13:11:57;22.90;99.90
40828;DHT22;26549;50.918;5.338;2023-10-08T13:14:26;22.90;99.90
40828;DHT22;26549;50.918;5.338;2023-10-08T13:16:51;22.80;99.90
40828;DHT22;26549;50.918;5.338;2023-10-08T13:19:22;22.80;99.90
40828;DHT22;26549;50.918;5.338;2023-10-08T13:21:49;22.70;99.90
40828;DHT22;26549;50.918;5.338;2023-10-08T13:24:18;22.90;99.90
40828;DHT22;26549;50.918;5.338;2023-10-08T13:26:44;22.90;99.90
40828;DHT22;26549;50.918;5.338;2023-10-08T13:29:13;23.00;99.90
40828;DHT22;26549;50.918;5.338;2023-10-08T13:31:39;23.00;99.90
40828;DHT22;26549;50.918;5.338;2023-10-08T13:34:05;22.90;99.90
40828;DHT22;26549;50.918;5.338;2023-10-08T13:36:35;22.90;99.90
40828;DHT22;26549;50.918;5.338;2023-10-08T13:39:04;23.00;99.90
40828;DHT22;26549;50.918;5.338;2023-10-08T13:41:34;23.00;99.90
40828;DHT22;26549;50.918;5.338;2023-10-08T13:44:00;23.00;99.90
40828;DHT22;26549;50.918;5.338;2023-10-08T13:46:33;23.10;99.90
40828;DHT22;26549;50.918;5.338;2023-10-08T13:49:02;23.10;99.90
40828;DHT22;26549;50.918;5.338;2023-10-08T13:51:28;23.10;99.90
40828;DHT22;26549;50.918;5.338;2023-10-08T13:53:55;23.10;99.90
40828;DHT22;26549;50.918;5.338;2023-10-08T13:56:32;23.30;99.90
40828;DHT22;26549;50.918;5.338;2023-10-08T13:59:00;23.30;99.90
40828;DHT22;26549;50.918;5.338;2023-10-08T14:01:37;23.20;99.90
40828;DHT22;26549;50.918;5.338;2023-10-08T14:04:06;23.20;99.90
40828;DHT22;26549;50.918;5.338;2023-10-08T14:06:34;23.20;99.90
40828;DHT22;26549;50.918;5.338;2023-10-08T14:09:03;23.30;99.90
40828;DHT22;26549;50.918;5.338;2023-10-08T14:11:33;23.30;99.90
40828;DHT22;26549;50.918;5.338;2023-10-08T14:13:59;23.40;99.90
40828;DHT22;26549;50.918;5.338;2023-10-08T14:16:40;23.40;99.90
40828;DHT22;26549;50.918;5.338;2023-10-08T14:19:12;23.40;99.90
40828;DHT22;26549;50.918;5.338;2023-10-08T14:21:45;23.40;99.90
40828;DHT22;26549;50.918;5.338;2023-10-08T14:24:26;23.40;99.90
40828;DHT22;26549;50.918;5.338;2023-10-08T14:27:00;23.60;99.90
40828;DHT22;26549;50.918;5.338;2023-10-08T14:29:31;23.60;99.90
40828;DHT22;26549;50.918;5.338;2023-10-08T14:32:02;23.80;99.90
40828;DHT22;26549;50.918;5.338;2023-10-08T14:34:36;23.90;99.90
40828;DHT22;26549;50.918;5.338;2023-10-08T14:37:21;23.80;99.90
40828;DHT22;26549;50.918;5.338;2023-10-08T14:40:06;23.80;99.90
40828;DHT22;26549;50.918;5.338;2023-10-08T14:42:51;23.80;99.90
40828;DHT22;26549;50.918;5.338;2023-10-08T14:45:34;23.80;99.90
40828;DHT22;26549;50.918;5.338;2023-10-08T14:48:04;23.60;99.90
40828;DHT22;26549;50.918;5.338;2023-10-08T14:50:37;23.60;99.90
40828;DHT22;26549;50.918;5.338;2023-10-08T14:53:04;23.70;99.90
40828;DHT22;26549;50.918;5.338;2023-10-08T14:55:32;23.60;99.90
40828;DHT22;26549;50.918;5.338;2023-10-08T14:58:05;23.50;99.90
40828;DHT22;26549;50.918;5.338;2023-10-08T15:00:34;23.60;99.90
40828;DHT22;26549;50.918;5.338;2023-10-08T15:03:05;23.60;99.90
40828;DHT22;26549;50.918;5.338;2023-10-08T15:05:31;23.60;99.90
40828;DHT22;26549;50.918;5.338;2023-10-08T15:07:57;23.60;99.90
40828;DHT22;26549;50.918;5.338;2023-10-08T15:10:23;23.60;99.90
40828;DHT22;26549;50.918;5.338;2023-10-08T15:12:49;23.50;99.90
40828;DHT22;26549;50.918;5.338;2023-10-08T15:15:17;23.40;99.90
40828;DHT22;26549;50.918;5.338;2023-10-08T15:17:46;23.40;99.90
40828;DHT22;26549;50.918;5.338;2023-10-08T15:20:13;23.30;99.90
40828;DHT22;26549;50.918;5.338;2023-10-08T15:22:44;23.30;99.90
40828;DHT22;26549;50.918;5.338;2023-10-08T15:25:13;23.40;99.90
40828;DHT22;26549;50.918;5.338;2023-10-08T15:27:41;23.40;99.90
40828;DHT22;26549;50.918;5.338;2023-10-08T15:30:10;23.20;99.90
40828;DHT22;26549;50.918;5.338;2023-10-08T15:32:38;23.10;99.90
40828;DHT22;26549;50.918;5.338;2023-10-08T15:35:06;23.00;99.90
40828;DHT22;26549;50.918;5.338;2023-10-08T15:37:35;23.00;99.90
40828;DHT22;26549;50.918;5.338;2023-10-08T15:40:02;23.00;99.90
40828;DHT22;26549;50.918;5.338;2023-10-08T15:42:35;23.00;99.90
40828;DHT22;26549;50.918;5.338;2023-10-08T15:45:02;23.00;99.90
40828;DHT22;26549;50.918;5.338;2023-10-08T15:47:29;23.00;99.90
40828;DHT22;26549;50.918;5.338;2023-10-08T15:49:57;22.90;99.90
40828;DHT22;26549;50.918;5.338;2023-10-08T15:52:24;22.80;99.90
40828;DHT22;26549;50.918;5.338;2023-10-08T15:54:50;22.70;99.90
40828;DHT22;26549;50.918;5.338;2023-10-08T15:57:16;22.70;99.90
40828;DHT22;26549;50.918;5.338;2023-10-08T15:59:42;22.70;99.90
40828;DHT22;26549;50.918;5.338;2023-10-08T16:02:08;22.50;99.90
40828;DHT22;26549;50.918;5.338;2023-10-08T16:04:34;22.50;99.90
40828;DHT22;26549;50.918;5.338;2023-10-08T16:06:59;22.50;99.90
40828;DHT22;26549;50.918;5.338;2023-10-08T16:09:25;22.40;99.90